Home   Weather   Vancouver Island   Past weeks
Flag for Canada

Past Weather in Vancouver Island, British Columbia, Canada — June 2021

Currently: 59 °F. Cool. (Weather station: Estevan Point, Canada). See more current weather

June 2021 Weather in Vancouver Island — Graph

°F

High & Low Weather Summary for June 2021

 TemperatureHumidityPressure
High86 °F (Jun 28, 11:00 am)100% (Jun 1, 4:00 am)30.39 "Hg (Jun 1, 4:00 am)
Low45 °F (Jun 7, 4:00 am)44% (Jun 28, 11:00 am)29.65 "Hg (Jun 13, 5:00 am)
Average56 °F90%30.00 "Hg
* Reported Jun 1 12:00 am — Jun 30 11:00 pm, Vancouver Island. Weather by CustomWeather, © 2021

Note: Actual official high and low records may vary slightly from our data, if they occured in-between our weather recording intervals... More about our weather records

Vancouver Island Weather History for June 1, 2021

Scroll right to see more
 ConditionsComfort  
Time TempWeatherWind HumidityBarometerVisibility
12:00 am
Tue, Jun 1
55 °FCool.9 mph92%30.19 "HgN/A
1:00 am54 °FCool.12 mph99%30.18 "HgN/A
2:00 am54 °FCool.7 mph99%30.17 "HgN/A
3:00 am54 °FCool.8 mph99%30.16 "HgN/A
4:00 am54 °FCool.10 mph100%30.15 "HgN/A
5:00 am54 °FCool.13 mph100%30.14 "HgN/A
6:00 am54 °FCool.13 mph100%30.14 "HgN/A
7:00 am54 °FCool.13 mph100%30.14 "HgN/A
8:00 am54 °FCool.13 mph99%30.13 "HgN/A
9:00 am55 °FCool.12 mph93%30.11 "HgN/A
10:00 am56 °FCool.12 mph97%30.11 "HgN/A
11:00 am56 °FCool.14 mph92%30.11 "HgN/A
12:00 pm60 °FCool.15 mph87%30.09 "HgN/A
1:00 pm60 °FCool.14 mph85%30.09 "HgN/A
2:00 pm62 °FCool.15 mph82%30.07 "HgN/A
3:00 pm61 °FCool.13 mph83%30.06 "HgN/A
4:00 pm61 °FCool.14 mph82%30.04 "HgN/A
5:00 pm60 °FCool.15 mph85%30.03 "HgN/A
6:00 pm59 °FCool.16 mph85%30.01 "HgN/A
7:00 pm59 °FCool.15 mph89%29.99 "HgN/A
8:00 pm59 °FCool.18 mph88%29.97 "HgN/A
9:00 pm57 °FCool.17 mph95%29.96 "HgN/A
10:00 pm57 °FCool.17 mph97%29.96 "HgN/A
11:00 pm57 °FCool.16 mph97%29.94 "HgN/A
Weather by CustomWeather, © 2021

See weather overview